Weather reports worldwide

Advertisment
Schwaebisch Hall, Germany (10745): temperature & dewpoint: 18.01.2020 03:00:00 - 24.01.2020 03:00:00 (CET)Schwaebisch Hall, Germany (10745): wind speed: 18.01.2020 03:00:00 - 24.01.2020 03:00:00 (CET)Schwaebisch Hall, Germany (10745): wind direction: 18.01.2020 03:00:00 - 24.01.2020 03:00:00 (CET)Schwaebisch Hall, Germany (10745): visibility: 18.01.2020 03:00:00 - 24.01.2020 03:00:00 (CET)
Date & Time tt [°C] td [°C] ff [km/h] ff [kn] dd vv [km]
24.01.2020 03:00:00 -1,0 -3,0 8 4 SW 6
24.01.2020 02:00:00 -1,0 -3,0 8 4 SW 6
24.01.2020 01:00:00 -1,0 -3,0 8 4 SSE 6
24.01.2020 00:00:00 -1,0 -2,0 8 4 S 5
23.01.2020 23:00:00 -1,0 -2,0 9 5 SE 6
23.01.2020 22:00:00 -1,0 -2,0 11 6 ESE 6
23.01.2020 21:00:00 -1,0 -2,0 15 8 E 6
23.01.2020 20:00:00 -1,0 -2,0 15 8 E 6
23.01.2020 19:00:00 -1,0 -2,0 15 8 E 6
23.01.2020 18:00:00 -1,0 -2,0 15 8 E 6
23.01.2020 17:00:00 -1,0 -2,0 16 9 E 5
23.01.2020 16:00:00 -1,0 -2,0 13 7 E 6
23.01.2020 15:00:00 -1,0 -2,0 16 9 E 6
23.01.2020 14:00:00 -1,0 -2,0 15 8 E 6
23.01.2020 13:00:00 -1,0 -2,0 16 9 E 5
23.01.2020 12:00:00 - - - - - -
23.01.2020 11:00:00 -1,0 -2,0 16 9 E 4,6
23.01.2020 10:00:00 -1,0 -2,0 11 6 ESE 5
23.01.2020 09:00:00 -1,0 -2,0 16 9 E 4,8
23.01.2020 08:00:00 -2,0 -2,0 18 10 ESE 4,9
23.01.2020 07:00:00 -1,0 -2,0 18 10 E 5
23.01.2020 06:00:00 -1,0 -2,0 15 8 E 5
23.01.2020 05:00:00 -2,0 -2,0 9 5 E 1,4
23.01.2020 04:00:00 -2,0 -2,0 11 6 E 1,9
23.01.2020 03:00:00 -2,0 -3,0 13 7 ENE 1,7
23.01.2020 02:00:00 -3,0 -4,0 4 2 E 4,5
23.01.2020 01:00:00 -4,0 -4,0 8 4 E 4,6
23.01.2020 00:00:00 -4,0 -4,0 11 6 E 4,7
22.01.2020 23:00:00 -3,0 -4,0 9 5 E 4,4
22.01.2020 22:00:00 -4,0 -4,0 8 4 ENE 2,2
22.01.2020 21:00:00 -4,0 -5,0 13 7 ENE 4,0
22.01.2020 20:00:00 -3,0 -4,0 5 3 NE 5
22.01.2020 19:00:00 -3,0 -4,0 5 3 E 5
22.01.2020 18:00:00 -2,0 -4,0 9 5 NE 6
22.01.2020 17:00:00 -1,0 -3,0 5 3 NE 6
22.01.2020 16:00:00 0,0 -3,0 11 6 S 7
22.01.2020 15:00:00 -1,0 -3,0 9 5 ENE 6
22.01.2020 14:00:00 -2,0 -4,0 13 7 NNE 6
22.01.2020 13:00:00 -1,0 -4,0 8 4 NNE 5
22.01.2020 12:00:00 -2,0 -4,0 5 3 - 4,9
22.01.2020 11:00:00 -3,0 -4,0 4 2 - 4,5
22.01.2020 10:00:00 -4,0 -5,0 8 4 SE 3,5
22.01.2020 09:00:00 -4,0 -5,0 8 4 NE 2,9
22.01.2020 08:00:00 -4,0 -4,0 8 4 ESE 3,9
22.01.2020 07:00:00 -4,0 -4,0 8 4 ENE 4,3
22.01.2020 06:00:00 -4,0 -5,0 5 3 NE 4,6
22.01.2020 05:00:00 -4,0 -5,0 4 2 - 4,7
22.01.2020 04:00:00 -3,0 -5,0 5 3 ESE 5
22.01.2020 03:00:00 -3,0 -4,0 11 6 SSE 5
22.01.2020 02:00:00 -3,0 -4,0 8 4 SE 5
22.01.2020 01:00:00 -3,0 -4,0 9 5 SE 6
22.01.2020 00:00:00 -2,0 -4,0 13 7 ESE 6
21.01.2020 23:00:00 -2,0 -4,0 13 7 E 6
21.01.2020 22:00:00 -2,0 -4,0 15 8 E 6
21.01.2020 21:00:00 -2,0 -3,0 13 7 ESE 7
21.01.2020 20:00:00 -2,0 -3,0 11 6 ESE 7
21.01.2020 19:00:00 -2,0 -3,0 11 6 ENE 7
21.01.2020 18:00:00 -1,0 -3,0 11 6 SE 8
21.01.2020 17:00:00 -1,0 -3,0 13 7 E 8
21.01.2020 16:00:00 -1,0 -3,0 13 7 E 9
21.01.2020 15:00:00 -1,0 -2,0 13 7 E 9
21.01.2020 14:00:00 -1,0 -3,0 11 6 E 9
21.01.2020 13:00:00 -1,0 -3,0 13 7 E 9
21.01.2020 12:00:00 -1,0 -3,0 11 6 ESE 9
21.01.2020 11:00:00 -1,0 -2,0 11 6 E 8
21.01.2020 10:00:00 -2,0 -3,0 13 7 ESE 8
21.01.2020 09:00:00 -2,0 -3,0 13 7 E 7
21.01.2020 08:00:00 -3,0 -4,0 8 4 E 8
21.01.2020 07:00:00 -4,0 -4,0 9 5 ENE 5
21.01.2020 06:00:00 -3,0 -4,0 8 4 E 6
21.01.2020 05:00:00 -3,0 -4,0 8 4 E 6
21.01.2020 04:00:00 -3,0 -4,0 8 4 E 6
21.01.2020 03:00:00 -4,0 -4,0 2 1 - 9
21.01.2020 02:00:00 -3,0 -4,0 4 2 E 10
21.01.2020 01:00:00 -2,0 -3,0 5 3 E 10
21.01.2020 00:00:00 -3,0 -3,0 5 3 E 10
20.01.2020 23:00:00 -2,0 -3,0 8 4 E 10
20.01.2020 22:00:00 -2,0 -3,0 8 4 E 10
20.01.2020 21:00:00 -1,0 -2,0 5 3 E 10
20.01.2020 20:00:00 -2,0 -4,0 9 5 ENE 10
20.01.2020 19:00:00 1,0 -2,0 11 6 ENE 10
20.01.2020 18:00:00 1,0 -2,0 9 5 NE 10
20.01.2020 17:00:00 2,0 -1,0 13 7 ENE 10
20.01.2020 16:00:00 3,0 -1,0 18 10 ENE 10
20.01.2020 15:00:00 4,0 -1,0 16 9 ENE 10
20.01.2020 14:00:00 4,0 -1,0 16 9 ENE 10
20.01.2020 13:00:00 3,0 0,0 15 8 E 10
20.01.2020 12:00:00 3,0 0,0 13 7 ENE 10
20.01.2020 11:00:00 2,0 0,0 5 3 E 10
20.01.2020 10:00:00 1,0 0,0 2 1 - 7
20.01.2020 09:00:00 -1,0 -1,0 0 0 N 5
20.01.2020 08:00:00 0,0 -1,0 4 2 E 8
20.01.2020 07:00:00 0,0 -1,0 2 1 E 10
20.01.2020 06:00:00 0,0 -1,0 0 0 N 10
20.01.2020 05:00:00 0,0 -1,0 0 0 N 10
20.01.2020 04:00:00 0,0 -1,0 2 1 - 10
20.01.2020 03:00:00 0,0 -1,0 4 2 N 10
20.01.2020 02:00:00 1,0 0,0 4 2 WNW 10
20.01.2020 01:00:00 1,0 0,0 4 2 - 10
20.01.2020 00:00:00 1,0 0,0 0 0 N 10
19.01.2020 23:00:00 1,0 0,0 2 1 W 10
19.01.2020 22:00:00 0,0 -1,0 4 2 WNW 10
19.01.2020 21:00:00 1,0 0,0 8 4 N 10
19.01.2020 20:00:00 2,0 0,0 8 4 NNW 10
19.01.2020 19:00:00 1,0 0,0 0 0 N 10
19.01.2020 18:00:00 2,0 0,0 5 3 N 10
19.01.2020 17:00:00 2,0 1,0 8 4 N 10
19.01.2020 16:00:00 3,0 0,0 9 5 N 10
19.01.2020 15:00:00 2,0 1,0 13 7 NNW 10
19.01.2020 14:00:00 2,0 1,0 8 4 NW 10
19.01.2020 13:00:00 2,0 0,0 8 4 N 10
19.01.2020 12:00:00 2,0 0,0 9 5 NNW 10
19.01.2020 11:00:00 1,0 0,0 11 6 NNW 10
19.01.2020 10:00:00 1,0 0,0 4 2 NW 6
19.01.2020 09:00:00 1,0 0,0 4 2 WNW 7
19.01.2020 08:00:00 1,0 0,0 4 2 WNW 8
19.01.2020 07:00:00 1,0 0,0 2 1 - 7
19.01.2020 06:00:00 1,0 0,0 8 4 W 6
19.01.2020 05:00:00 1,0 0,0 4 2 SW 10
19.01.2020 04:00:00 1,0 0,0 8 4 W 10
19.01.2020 03:00:00 1,0 0,0 5 3 W 10
19.01.2020 02:00:00 1,0 0,0 8 4 WSW 10
19.01.2020 01:00:00 2,0 0,0 4 2 - 10
19.01.2020 00:00:00 1,0 0,0 8 4 W 10
18.01.2020 23:00:00 2,0 0,0 11 6 W 10
18.01.2020 22:00:00 2,0 0,0 9 5 W 10
18.01.2020 21:00:00 2,0 0,0 11 6 WSW 10
18.01.2020 20:00:00 2,0 1,0 8 4 WSW 10
18.01.2020 19:00:00 2,0 1,0 9 5 WSW 10
18.01.2020 18:00:00 2,0 1,0 9 5 WSW 10
18.01.2020 17:00:00 3,0 1,0 9 5 SW 10
18.01.2020 16:00:00 4,0 0,0 16 9 WSW 10
18.01.2020 15:00:00 5,0 0,0 16 9 W 10
18.01.2020 14:00:00 4,0 1,0 13 7 SW 10
18.01.2020 13:00:00 5,0 -1,0 22 12 WSW 10
18.01.2020 12:00:00 6,0 1,0 13 7 SW 10
18.01.2020 11:00:00 4,0 1,0 9 5 SW 10
18.01.2020 10:00:00 4,0 1,0 9 5 W 10
18.01.2020 09:00:00 4,0 1,0 8 4 WSW 10
18.01.2020 08:00:00 4,0 1,0 15 8 W 10
18.01.2020 07:00:00 4,0 2,0 13 7 W 10
18.01.2020 06:00:00 5,0 2,0 16 9 W 10
18.01.2020 05:00:00 5,0 3,0 13 7 WSW 10
18.01.2020 04:00:00 5,0 3,0 15 8 WSW 10
18.01.2020 03:00:00 6,0 3,0 15 8 W 10

tt = temperature
td = dewpoint
ff = wind speed
dd = wind direction
vv = visibility

Next stations